Time;durP1;ratioP1;P1;durP2;ratioP2;P2;SDS_P1;SDS_P2;PMS_P1;PMS_P2;Temp;Humidity;BMP_temperature;BMP_pressure;BME280_temperature;BME280_humidity;BME280_pressure;Samples;Min_cycle;Max_cycle;Signal;HPM_P1;HPM_P2
2023/06/10 00:01:55;;;;;;;2.10;1.55;;;26.50;44.30;;;;;;5034498;28;20022;-65
2023/06/10 00:04:20;;;;;;;3.25;2.30;;;26.50;44.40;;;;;;5034171;28;20040;-65
2023/06/10 00:06:49;;;;;;;3.00;2.47;;;26.50;44.30;;;;;;5034816;28;20030;-65
2023/06/10 00:09:15;;;;;;;2.95;2.50;;;26.50;44.30;;;;;;5038552;28;20082;-65
2023/06/10 00:11:41;;;;;;;3.63;2.70;;;26.50;44.30;;;;;;5032757;28;20037;-65
2023/06/10 00:14:07;;;;;;;2.97;2.22;;;26.50;44.30;;;;;;5031871;28;20122;-64
2023/06/10 00:16:34;;;;;;;2.78;2.00;;;26.50;44.30;;;;;;5034641;28;20037;-65
2023/06/10 00:19:01;;;;;;;2.35;1.80;;;26.60;44.40;;;;;;5033504;28;20024;-65
2023/06/10 00:21:37;;;;;;;1.80;1.35;;;26.50;44.20;;;;;;5020592;28;20036;-65
2023/06/10 00:24:05;;;;;;;2.20;1.70;;;26.50;44.30;;;;;;5034088;28;20053;-65
2023/06/10 00:26:31;;;;;;;2.05;1.55;;;26.50;44.30;;;;;;5017738;28;20041;-65
2023/06/10 00:28:56;;;;;;;2.95;1.67;;;26.50;44.30;;;;;;5033971;28;20162;-65
2023/06/10 00:31:22;;;;;;;2.13;1.60;;;26.40;44.30;;;;;;5036512;28;20030;-65
2023/06/10 00:33:47;;;;;;;2.00;1.55;;;26.40;44.30;;;;;;5037376;28;20070;-65
2023/06/10 00:36:13;;;;;;;2.33;1.63;;;26.50;44.40;;;;;;5039168;28;20188;-65
2023/06/10 00:38:40;;;;;;;2.50;2.00;;;26.50;44.40;;;;;;5038824;28;20461;-65
2023/06/10 00:41:06;;;;;;;2.15;1.80;;;26.40;44.30;;;;;;5020570;28;20153;-65
2023/06/10 00:43:32;;;;;;;2.42;1.85;;;26.40;44.30;;;;;;5037243;28;20723;-66
2023/06/10 00:45:58;;;;;;;2.30;1.75;;;26.40;44.40;;;;;;5039539;28;20041;-65
2023/06/10 00:48:24;;;;;;;2.17;1.65;;;26.40;44.40;;;;;;5038051;28;20047;-65
2023/06/10 00:50:50;;;;;;;2.13;1.73;;;26.40;44.40;;;;;;5022091;28;20025;-65
2023/06/10 00:53:17;;;;;;;2.05;1.60;;;26.40;44.90;;;;;;5006046;28;20393;-65
2023/06/10 00:55:43;;;;;;;2.28;1.77;;;26.40;44.40;;;;;;5034249;28;20025;-65
2023/06/10 00:58:09;;;;;;;2.10;1.88;;;26.40;44.30;;;;;;5037801;28;20103;-65
2023/06/10 01:00:35;;;;;;;2.45;1.80;;;26.40;44.40;;;;;;5019800;28;20045;-65
2023/06/10 01:03:00;;;;;;;2.22;1.67;;;26.40;44.40;;;;;;5019322;28;20061;-65
2023/06/10 01:05:27;;;;;;;3.17;1.92;;;26.40;44.40;;;;;;5035905;28;20410;-65
2023/06/10 01:08:18;;;;;;;2.70;1.90;;;26.40;44.40;;;;;;5040536;28;20043;-65
2023/06/10 01:10:58;;;;;;;1.98;1.60;;;26.40;44.40;;;;;;5034009;28;20135;-65
2023/06/10 01:13:28;;;;;;;2.25;1.85;;;26.40;44.40;;;;;;5033968;28;20049;-66
2023/06/10 01:15:55;;;;;;;2.47;1.80;;;26.40;44.30;;;;;;5040849;28;20029;-65
2023/06/10 01:18:21;;;;;;;3.25;1.90;;;26.40;44.40;;;;;;5036588;28;20037;-65
2023/06/10 01:20:48;;;;;;;2.20;1.75;;;26.40;44.40;;;;;;5020966;28;20477;-65
2023/06/10 01:23:15;;;;;;;2.28;1.75;;;26.30;44.30;;;;;;5038114;28;20079;-65
2023/06/10 01:25:54;;;;;;;2.25;1.80;;;26.30;44.30;;;;;;5006569;28;20128;-66
2023/06/10 01:28:54;;;;;;;2.55;1.92;;;26.30;44.40;;;;;;5019895;28;20437;-65
2023/06/10 01:31:46;;;;;;;2.33;1.80;;;26.30;44.30;;;;;;5035590;28;20468;-65
2023/06/10 01:34:16;;;;;;;2.00;1.80;;;26.30;44.40;;;;;;5032429;28;20444;-65
2023/06/10 01:36:47;;;;;;;2.50;1.90;;;26.30;44.40;;;;;;5036210;28;20115;-65
2023/06/10 01:39:14;;;;;;;2.30;1.85;;;26.30;44.40;;;;;;5006809;28;20365;-65
2023/06/10 01:41:40;;;;;;;1.90;1.50;;;26.30;44.40;;;;;;5018638;28;20426;-65
2023/06/10 01:44:06;;;;;;;2.17;1.63;;;26.30;44.40;;;;;;5038920;28;20035;-65
2023/06/10 01:46:31;;;;;;;3.10;1.80;;;26.30;44.40;;;;;;5035051;28;20033;-65
2023/06/10 01:48:57;;;;;;;1.98;1.50;;;26.20;44.40;;;;;;5037437;28;20338;-65
2023/06/10 01:51:23;;;;;;;2.55;2.00;;;26.20;44.40;;;;;;5036677;28;20067;-65
2023/06/10 01:53:48;;;;;;;1.98;1.50;;;26.20;45.00;;;;;;5036456;28;20025;-65
2023/06/10 01:56:19;;;;;;;2.00;1.60;;;26.20;44.50;;;;;;5039505;28;20417;-65
2023/06/10 01:58:45;;;;;;;2.40;1.80;;;26.20;44.50;;;;;;5037696;28;20076;-65
2023/06/10 02:01:11;;;;;;;2.08;1.60;;;26.20;44.50;;;;;;5021209;28;20592;-65
2023/06/10 02:03:37;;;;;;;2.22;1.80;;;26.20;44.50;;;;;;5038536;28;20059;-65
2023/06/10 02:06:02;;;;;;;2.60;1.73;;;26.20;44.50;;;;;;5036346;28;20079;-65
2023/06/10 02:08:28;;;;;;;1.92;1.55;;;26.20;44.50;;;;;;5036782;28;20392;-65
2023/06/10 02:10:54;;;;;;;2.88;1.88;;;26.10;44.50;;;;;;5038748;28;20548;-65
2023/06/10 02:13:19;;;;;;;2.28;1.80;;;26.10;44.50;;;;;;5039617;28;20043;-65
2023/06/10 02:15:45;;;;;;;2.55;1.80;;;26.10;44.50;;;;;;5032429;28;20026;-65
2023/06/10 02:18:11;;;;;;;2.13;1.70;;;26.10;44.50;;;;;;5036169;28;20083;-66
2023/06/10 02:20:37;;;;;;;1.70;1.45;;;26.10;44.50;;;;;;5036343;28;20043;-65
2023/06/10 02:23:03;;;;;;;2.55;1.90;;;26.10;44.50;;;;;;5036961;28;20044;-66
2023/06/10 02:25:29;;;;;;;2.28;1.67;;;26.10;44.50;;;;;;5036950;28;20029;-65
2023/06/10 02:27:55;;;;;;;2.20;1.70;;;26.10;44.60;;;;;;5033581;28;20069;-65
2023/06/10 02:30:21;;;;;;;2.30;1.67;;;26.10;44.60;;;;;;5034749;28;20043;-65
2023/06/10 02:32:47;;;;;;;2.47;1.80;;;26.10;44.60;;;;;;5032715;28;20511;-65
2023/06/10 02:35:14;;;;;;;2.20;1.77;;;26.00;44.60;;;;;;5035022;28;20026;-65
2023/06/10 02:37:39;;;;;;;2.40;1.80;;;26.10;44.60;;;;;;5036663;28;20026;-65
2023/06/10 02:40:08;;;;;;;1.98;1.60;;;26.00;44.60;;;;;;5036163;28;20489;-65
2023/06/10 02:42:34;;;;;;;2.05;1.63;;;26.00;44.60;;;;;;5039233;28;20112;-65
2023/06/10 02:45:00;;;;;;;2.15;1.60;;;26.00;44.60;;;;;;5020145;28;20603;-65
2023/06/10 02:47:26;;;;;;;2.08;1.58;;;26.00;44.60;;;;;;5037569;28;20385;-65
2023/06/10 02:49:51;;;;;;;2.10;1.52;;;26.00;44.70;;;;;;5035588;28;20020;-65
2023/06/10 02:52:17;;;;;;;2.53;1.90;;;26.00;44.70;;;;;;5034863;28;20382;-65
2023/06/10 02:54:43;;;;;;;1.95;1.48;;;26.00;44.70;;;;;;5033034;28;20021;-65
2023/06/10 02:57:10;;;;;;;1.77;1.42;;;26.00;44.70;;;;;;5033564;28;20053;-65
2023/06/10 02:59:36;;;;;;;2.10;1.60;;;25.90;44.60;;;;;;5033452;28;20129;-65
2023/06/10 03:02:01;;;;;;;1.88;1.48;;;25.90;45.20;;;;;;5019074;28;20181;-65
2023/06/10 03:04:29;;;;;;;1.90;1.45;;;25.90;44.70;;;;;;5031638;28;20033;-65
2023/06/10 03:06:55;;;;;;;2.50;1.70;;;25.90;45.20;;;;;;5019981;28;20036;-65
2023/06/10 03:09:21;;;;;;;2.45;1.70;;;25.90;44.70;;;;;;5035325;28;20037;-65
2023/06/10 03:11:47;;;;;;;2.50;1.85;;;25.90;44.70;;;;;;5017927;28;20036;-65
2023/06/10 03:14:12;;;;;;;2.20;1.60;;;25.90;44.70;;;;;;5036730;28;20408;-65
2023/06/10 03:16:42;;;;;;;1.90;1.50;;;25.90;44.80;;;;;;5035309;28;20032;-65
2023/06/10 03:19:08;;;;;;;1.90;1.55;;;25.90;44.80;;;;;;5018992;28;20033;-65
2023/06/10 03:21:37;;;;;;;2.00;1.50;;;25.90;44.80;;;;;;5002644;28;20041;-66
2023/06/10 03:24:03;;;;;;;2.25;1.60;;;25.90;44.80;;;;;;5016215;28;20061;-66
2023/06/10 03:26:28;;;;;;;2.00;1.67;;;25.90;44.80;;;;;;5002738;28;20115;-65
2023/06/10 03:28:54;;;;;;;1.77;1.33;;;25.80;44.80;;;;;;5036884;28;20206;-65
2023/06/10 03:31:20;;;;;;;1.85;1.55;;;25.80;44.80;;;;;;5035233;28;20033;-65
2023/06/10 03:33:45;;;;;;;1.80;1.40;;;25.80;44.80;;;;;;5040341;28;20036;-65
2023/06/10 03:36:11;;;;;;;1.90;1.50;;;25.80;44.80;;;;;;5034890;28;20060;-65
2023/06/10 03:38:37;;;;;;;1.80;1.30;;;25.80;44.80;;;;;;5034763;28;20392;-65
2023/06/10 03:41:02;;;;;;;1.80;1.40;;;25.80;44.80;;;;;;5034411;28;20513;-65
2023/06/10 03:43:28;;;;;;;1.98;1.60;;;25.80;44.80;;;;;;5037003;28;20037;-65
2023/06/10 03:45:53;;;;;;;2.15;1.40;;;25.80;44.80;;;;;;5020345;28;20045;-65
2023/06/10 03:48:19;;;;;;;2.13;1.50;;;25.80;44.90;;;;;;5035241;28;20049;-65
2023/06/10 03:50:47;;;;;;;1.83;1.50;;;25.80;44.90;;;;;;5036147;28;20033;-65
2023/06/10 03:53:13;;;;;;;1.90;1.50;;;25.80;44.90;;;;;;5035796;28;20032;-65
2023/06/10 03:55:39;;;;;;;2.38;1.67;;;25.80;44.90;;;;;;5035001;28;20037;-65
2023/06/10 03:58:05;;;;;;;1.77;1.42;;;25.80;44.90;;;;;;5016730;28;20413;-65
2023/06/10 04:00:30;;;;;;;2.25;1.42;;;25.80;44.90;;;;;;5037342;28;20108;-66
2023/06/10 04:02:57;;;;;;;2.00;1.50;;;25.70;44.90;;;;;;5034204;28;20169;-65
2023/06/10 04:05:23;;;;;;;1.80;1.42;;;25.80;45.00;;;;;;5032785;28;20459;-65
2023/06/10 04:07:49;;;;;;;1.90;1.50;;;25.80;45.00;;;;;;5034828;28;20030;-65
2023/06/10 04:10:15;;;;;;;2.00;1.60;;;25.70;44.90;;;;;;5032560;28;20101;-65
2023/06/10 04:12:41;;;;;;;1.90;1.50;;;25.70;44.90;;;;;;5017533;28;20117;-65
2023/06/10 04:15:08;;;;;;;2.00;1.63;;;25.70;44.90;;;;;;5036161;28;20378;-65
2023/06/10 04:17:34;;;;;;;1.83;1.60;;;25.70;44.90;;;;;;5035853;28;20466;-65
2023/06/10 04:20:00;;;;;;;1.83;1.50;;;25.70;44.90;;;;;;5029752;28;20181;-65
2023/06/10 04:22:26;;;;;;;1.88;1.50;;;25.70;44.90;;;;;;5035073;28;20025;-65
2023/06/10 04:24:51;;;;;;;2.00;1.60;;;25.70;44.90;;;;;;5018216;28;20024;-66
2023/06/10 04:27:17;;;;;;;1.77;1.50;;;25.70;45.00;;;;;;5019077;28;20061;-65
2023/06/10 04:29:43;;;;;;;2.08;1.50;;;25.70;44.90;;;;;;5034663;28;20048;-65
2023/06/10 04:32:08;;;;;;;2.00;1.60;;;25.70;45.00;;;;;;5034815;28;20036;-65
2023/06/10 04:34:34;;;;;;;2.03;1.50;;;25.70;45.00;;;;;;5034147;28;20493;-66
2023/06/10 04:37:00;;;;;;;1.83;1.45;;;25.70;45.00;;;;;;5014662;28;20036;-66
2023/06/10 04:39:26;;;;;;;1.70;1.30;;;25.70;45.10;;;;;;5032350;28;20036;-65
2023/06/10 04:41:51;;;;;;;1.63;1.35;;;25.60;45.00;;;;;;5030659;28;20031;-66
2023/06/10 04:44:18;;;;;;;1.85;1.60;;;25.70;45.10;;;;;;5035848;28;20124;-66
2023/06/10 04:46:44;;;;;;;2.17;1.60;;;25.60;45.10;;;;;;5033567;28;20035;-65
2023/06/10 04:49:09;;;;;;;1.50;1.30;;;25.60;45.00;;;;;;5034518;28;20392;-65
2023/06/10 04:51:35;;;;;;;2.03;1.60;;;25.70;45.10;;;;;;5033756;28;20056;-65
2023/06/10 04:54:03;;;;;;;2.00;1.50;;;25.60;45.10;;;;;;5034328;28;20445;-65
2023/06/10 04:56:30;;;;;;;1.85;1.40;;;25.60;45.00;;;;;;5037139;28;20051;-65
2023/06/10 04:58:56;;;;;;;2.25;1.50;;;25.60;45.10;;;;;;5018576;28;20117;-65
2023/06/10 05:01:22;;;;;;;1.90;1.50;;;25.60;45.10;;;;;;5033948;28;20021;-65
2023/06/10 05:03:47;;;;;;;1.88;1.50;;;25.60;45.10;;;;;;5031437;28;20030;-66
2023/06/10 05:06:13;;;;;;;1.88;1.50;;;25.60;45.10;;;;;;5033122;28;20033;-65
2023/06/10 05:08:38;;;;;;;2.03;1.48;;;25.60;45.10;;;;;;5034792;28;20030;-65
2023/06/10 05:11:04;;;;;;;2.10;1.48;;;25.60;45.10;;;;;;5033064;28;20426;-65
2023/06/10 05:13:29;;;;;;;2.20;1.60;;;25.60;45.20;;;;;;5034193;28;20025;-65
2023/06/10 05:15:55;;;;;;;2.00;1.55;;;25.50;45.10;;;;;;5029408;28;20049;-66
2023/06/10 05:18:21;;;;;;;1.90;1.50;;;25.50;45.10;;;;;;5027180;28;20076;-65
2023/06/10 05:20:46;;;;;;;1.90;1.40;;;25.50;45.10;;;;;;5033437;28;20132;-65
2023/06/10 05:23:12;;;;;;;1.90;1.58;;;25.50;45.10;;;;;;5020249;28;20366;-66
2023/06/10 05:25:38;;;;;;;1.90;1.50;;;25.50;45.10;;;;;;5038780;28;20026;-65
2023/06/10 05:28:03;;;;;;;1.80;1.45;;;25.50;45.10;;;;;;5022464;28;20083;-65
2023/06/10 05:30:29;;;;;;;2.15;1.73;;;25.50;45.10;;;;;;5018914;28;20488;-65
2023/06/10 05:32:56;;;;;;;1.90;1.50;;;25.50;45.10;;;;;;5037213;28;20244;-65
2023/06/10 05:35:22;;;;;;;2.00;1.50;;;25.50;45.20;;;;;;5037838;28;20028;-66
2023/06/10 05:37:48;;;;;;;1.98;1.50;;;25.50;45.20;;;;;;5037205;28;20033;-65
2023/06/10 05:40:13;;;;;;;2.00;1.50;;;25.50;45.20;;;;;;5017988;28;20025;-65
2023/06/10 05:42:40;;;;;;;2.20;1.70;;;25.50;45.20;;;;;;5033514;28;20037;-65
2023/06/10 05:45:06;;;;;;;1.75;1.40;;;25.50;45.30;;;;;;5018414;28;20041;-65
2023/06/10 05:47:32;;;;;;;2.10;1.58;;;25.50;45.30;;;;;;5036172;28;20517;-65
2023/06/10 05:49:58;;;;;;;1.80;1.50;;;25.50;45.30;;;;;;5037835;28;20116;-65
2023/06/10 05:52:23;;;;;;;1.75;1.55;;;25.40;45.30;;;;;;5019247;28;20037;-65
2023/06/10 05:54:50;;;;;;;1.88;1.58;;;25.40;45.30;;;;;;5035453;28;20032;-65
2023/06/10 05:57:15;;;;;;;2.00;1.58;;;25.40;45.30;;;;;;5033766;28;20481;-65
2023/06/10 05:59:41;;;;;;;2.03;1.60;;;25.50;45.40;;;;;;5036753;28;20119;-65
2023/06/10 06:02:07;;;;;;;1.88;1.55;;;25.40;45.30;;;;;;5036003;28;20103;-65
2023/06/10 06:04:33;;;;;;;2.60;1.80;;;25.50;45.40;;;;;;5040290;28;20130;-65
2023/06/10 06:06:59;;;;;;;2.00;1.60;;;25.50;45.40;;;;;;5032859;28;20606;-65
2023/06/10 06:09:24;;;;;;;2.03;1.50;;;25.40;45.40;;;;;;5036144;28;20113;-65
2023/06/10 06:11:50;;;;;;;2.13;1.77;;;25.40;45.40;;;;;;5032716;28;20032;-65
2023/06/10 06:14:15;;;;;;;2.00;1.50;;;25.40;45.40;;;;;;5036949;28;20030;-65
2023/06/10 06:16:41;;;;;;;2.17;1.50;;;25.40;45.50;;;;;;5032336;28;20103;-65
2023/06/10 06:19:09;;;;;;;2.25;1.60;;;25.40;45.50;;;;;;5034145;28;20036;-65
2023/06/10 06:21:35;;;;;;;2.10;1.55;;;25.40;45.50;;;;;;5036075;28;20474;-65
2023/06/10 06:24:00;;;;;;;2.22;1.60;;;25.40;45.50;;;;;;5035437;28;20040;-65
2023/06/10 06:26:26;;;;;;;2.10;1.70;;;25.40;45.60;;;;;;5035308;28;20043;-65
2023/06/10 06:28:52;;;;;;;1.90;1.60;;;25.40;45.60;;;;;;5019229;28;20025;-65
2023/06/10 06:31:18;;;;;;;2.30;1.70;;;25.40;45.60;;;;;;5035502;28;20108;-65
2023/06/10 06:33:43;;;;;;;2.05;1.70;;;25.40;45.60;;;;;;5037357;28;20052;-65
2023/06/10 06:36:09;;;;;;;2.00;1.70;;;25.40;45.60;;;;;;5031815;28;20021;-65
2023/06/10 06:38:34;;;;;;;2.08;1.70;;;25.40;45.70;;;;;;5036245;28;20040;-65
2023/06/10 06:41:05;;;;;;;2.47;2.03;;;25.40;45.70;;;;;;5039529;28;20214;-65
2023/06/10 06:43:31;;;;;;;2.22;1.70;;;25.40;45.80;;;;;;5017992;28;20032;-65
2023/06/10 06:45:57;;;;;;;2.20;1.60;;;25.40;45.80;;;;;;5036931;28;20029;-65
2023/06/10 06:48:23;;;;;;;2.17;1.60;;;25.40;45.80;;;;;;5016013;28;20144;-64
2023/06/10 06:50:49;;;;;;;2.05;1.65;;;25.40;45.80;;;;;;5035098;28;20121;-65
2023/06/10 06:53:15;;;;;;;2.20;1.80;;;25.40;45.90;;;;;;5033152;28;21040;-65
2023/06/10 06:55:40;;;;;;;2.70;1.80;;;25.40;45.90;;;;;;5038251;28;20044;-65
2023/06/10 06:58:06;;;;;;;2.10;1.60;;;25.40;45.90;;;;;;5037875;28;20478;-65
2023/06/10 07:00:32;;;;;;;2.20;1.60;;;25.40;45.90;;;;;;5036505;28;20477;-65
2023/06/10 07:02:57;;;;;;;2.50;1.80;;;25.40;45.90;;;;;;5031810;28;20079;-65
2023/06/10 07:05:27;;;;;;;2.17;1.75;;;25.40;45.90;;;;;;5016018;28;20049;-65
2023/06/10 07:07:54;;;;;;;;;;;25.40;45.90;;;;;;5031094;28;20076;-65
2023/06/10 07:10:21;;;;;;;2.05;1.52;;;25.40;45.90;;;;;;5004424;28;19908;-65
2023/06/10 07:12:48;;;;;;;2.50;1.67;;;25.40;45.90;;;;;;5036731;28;20036;-65
2023/06/10 07:15:13;;;;;;;2.20;1.70;;;25.30;45.80;;;;;;5033874;28;20032;-65
2023/06/10 07:17:39;;;;;;;2.10;1.77;;;25.30;45.80;;;;;;5001682;28;20446;-65
2023/06/10 07:20:05;;;;;;;2.25;1.65;;;25.30;45.90;;;;;;5037155;28;20033;-65
2023/06/10 07:22:30;;;;;;;2.30;1.80;;;25.40;46.00;;;;;;5033680;28;20392;-65
2023/06/10 07:24:57;;;;;;;2.17;1.80;;;25.30;46.00;;;;;;5036190;28;20040;-65
2023/06/10 07:27:22;;;;;;;2.03;1.73;;;25.40;46.00;;;;;;5036121;28;20060;-65
2023/06/10 07:29:48;;;;;;;2.30;1.70;;;25.30;46.00;;;;;;5034974;28;20048;-65
2023/06/10 07:32:14;;;;;;;2.00;1.60;;;25.40;46.10;;;;;;5002379;28;20021;-65
2023/06/10 07:34:39;;;;;;;2.30;1.98;;;25.30;46.00;;;;;;5033582;28;20017;-65
2023/06/10 07:37:05;;;;;;;3.53;1.80;;;25.30;46.00;;;;;;5029236;28;20028;-65
2023/06/10 07:39:31;;;;;;;2.20;1.80;;;25.30;46.00;;;;;;5032060;28;20503;-66
2023/06/10 07:41:57;;;;;;;1.90;1.60;;;25.30;46.00;;;;;;5035137;28;20036;-65
2023/06/10 07:44:23;;;;;;;2.10;1.80;;;25.30;46.00;;;;;;5033376;28;20095;-65
2023/06/10 07:46:48;;;;;;;2.15;1.88;;;25.30;46.10;;;;;;5036767;28;20037;-65
2023/06/10 07:49:14;;;;;;;2.83;1.90;;;25.30;46.10;;;;;;5037135;28;20370;-65
2023/06/10 07:51:40;;;;;;;2.55;1.80;;;25.30;46.10;;;;;;5018089;28;20029;-65
2023/06/10 07:54:06;;;;;;;2.30;1.83;;;25.30;46.10;;;;;;5020465;28;20036;-65
2023/06/10 07:56:31;;;;;;;2.00;1.60;;;25.30;46.10;;;;;;5036731;28;20482;-66
2023/06/10 07:58:57;;;;;;;2.08;1.70;;;25.30;46.10;;;;;;5033011;28;20104;-65
2023/06/10 08:01:24;;;;;;;2.70;2.13;;;25.30;46.20;;;;;;5036954;28;20397;-65
2023/06/10 08:03:49;;;;;;;2.00;1.60;;;25.30;46.20;;;;;;5018239;28;20495;-65
2023/06/10 08:06:17;;;;;;;2.25;1.77;;;25.30;46.20;;;;;;5036632;28;20176;-65
2023/06/10 08:08:43;;;;;;;2.42;1.90;;;25.30;46.20;;;;;;5036034;28;20021;-65
2023/06/10 08:11:11;;;;;;;2.70;2.00;;;25.30;46.20;;;;;;5018285;28;20049;-66
2023/06/10 08:13:37;;;;;;;2.30;1.83;;;25.30;46.20;;;;;;5031572;28;20022;-65
2023/06/10 08:16:03;;;;;;;2.17;1.88;;;25.30;46.30;;;;;;5034964;28;20659;-65
2023/06/10 08:18:28;;;;;;;2.63;1.90;;;25.30;46.20;;;;;;5033452;28;20079;-65
2023/06/10 08:20:54;;;;;;;2.53;1.95;;;25.30;46.30;;;;;;5021574;28;20031;-65
2023/06/10 08:23:20;;;;;;;2.60;2.00;;;25.30;46.30;;;;;;5034807;28;20335;-65
2023/06/10 08:25:46;;;;;;;2.03;1.60;;;25.30;46.40;;;;;;5031307;28;20040;-65
2023/06/10 08:28:11;;;;;;;2.38;1.80;;;25.30;46.30;;;;;;5034941;28;20021;-65
2023/06/10 08:30:37;;;;;;;2.38;1.67;;;25.30;46.30;;;;;;5015523;28;20102;-66
2023/06/10 08:33:03;;;;;;;2.30;1.70;;;25.30;46.30;;;;;;5033925;28;20129;-65
2023/06/10 08:35:28;;;;;;;2.10;1.70;;;25.30;46.40;;;;;;5034084;28;20033;-65
2023/06/10 08:37:54;;;;;;;2.20;1.77;;;25.30;46.40;;;;;;5032711;28;20429;-65
2023/06/10 08:40:20;;;;;;;2.20;1.70;;;25.30;46.40;;;;;;5031161;28;20397;-65
2023/06/10 08:43:01;;;;;;;2.28;1.80;;;25.30;46.40;;;;;;5032637;28;20108;-65
2023/06/10 08:45:29;;;;;;;2.10;1.70;;;25.30;46.40;;;;;;5033139;28;20397;-65
2023/06/10 08:47:58;;;;;;;2.17;1.88;;;25.30;46.40;;;;;;5034710;28;20775;-65
2023/06/10 08:50:24;;;;;;;;;;;25.30;46.40;;;;;;5036705;28;20044;-65
2023/06/10 08:52:54;;;;;;;2.40;1.80;;;25.30;46.50;;;;;;5036270;28;19923;-65
2023/06/10 08:55:32;;;;;;;2.28;1.88;;;25.30;46.40;;;;;;5006341;28;20072;-66
2023/06/10 08:58:02;;;;;;;2.30;1.80;;;25.30;46.50;;;;;;5035037;28;20139;-65
2023/06/10 09:00:29;;;;;;;2.30;1.70;;;25.30;46.40;;;;;;5037299;28;20061;-65
2023/06/10 09:02:57;;;;;;;1.75;1.52;;;25.20;46.40;;;;;;5038451;28;20036;-65
2023/06/10 09:05:22;;;;;;;2.75;1.95;;;25.20;46.40;;;;;;5035707;28;20026;-65
2023/06/10 09:07:50;;;;;;;2.63;1.80;;;25.30;46.50;;;;;;5035673;28;20080;-65
2023/06/10 09:10:16;;;;;;;2.38;1.90;;;25.30;46.40;;;;;;5035199;28;20082;-65
2023/06/10 09:12:42;;;;;;;1.92;1.58;;;25.30;46.50;;;;;;5036858;28;20034;-65
2023/06/10 09:15:09;;;;;;;2.20;1.70;;;25.30;46.40;;;;;;5022643;28;20048;-65
2023/06/10 09:17:36;;;;;;;1.98;1.60;;;25.20;46.40;;;;;;5038747;28;20481;-65
2023/06/10 09:20:02;;;;;;;1.85;1.52;;;25.30;46.50;;;;;;5036803;28;20452;-65
2023/06/10 09:22:28;;;;;;;2.38;1.70;;;25.20;46.40;;;;;;5006471;28;20025;-65
2023/06/10 09:25:10;;;;;;;1.90;1.52;;;25.20;46.40;;;;;;5033953;28;20033;-65
2023/06/10 09:27:49;;;;;;;2.25;1.85;;;25.30;46.50;;;;;;5035216;28;20064;-65
2023/06/10 09:30:32;;;;;;;2.60;2.00;;;25.20;46.40;;;;;;5034370;28;20079;-65
2023/06/10 09:33:03;;;;;;;2.10;1.70;;;25.30;46.50;;;;;;5037923;28;20075;-65
2023/06/10 09:35:30;;;;;;;2.55;1.88;;;25.20;46.40;;;;;;5035370;28;20026;-65
2023/06/10 09:38:00;;;;;;;2.00;1.58;;;25.20;46.40;;;;;;5033190;28;20143;-65
2023/06/10 09:40:27;;;;;;;1.67;1.42;;;25.30;46.50;;;;;;5035675;28;20521;-65
2023/06/10 09:42:55;;;;;;;2.40;1.80;;;25.30;46.50;;;;;;5037361;28;20025;-65
2023/06/10 09:45:20;;;;;;;2.33;1.75;;;25.30;46.50;;;;;;5035244;28;20030;-65
2023/06/10 09:47:55;;;;;;;2.40;1.65;;;25.30;46.60;;;;;;5035958;28;20384;-65
2023/06/10 09:50:21;;;;;;;2.40;1.80;;;25.20;46.60;;;;;;5004834;28;20021;-65
2023/06/10 09:52:49;;;;;;;2.20;1.60;;;25.30;46.60;;;;;;5017013;28;20030;-65
2023/06/10 09:55:17;;;;;;;2.15;1.80;;;25.30;46.60;;;;;;5034740;28;20048;-65
2023/06/10 09:57:47;;;;;;;2.20;1.83;;;25.30;46.60;;;;;;5037516;28;20021;-65
2023/06/10 10:00:14;;;;;;;2.08;1.60;;;25.20;46.60;;;;;;5034863;28;20100;-65
2023/06/10 10:02:53;;;;;;;2.25;1.80;;;25.30;46.70;;;;;;5036034;28;20033;-65
2023/06/10 10:05:21;;;;;;;2.47;1.90;;;25.30;46.70;;;;;;5035941;28;20029;-64
2023/06/10 10:07:47;;;;;;;2.40;1.90;;;25.30;46.80;;;;;;5032971;28;20042;-65
2023/06/10 10:10:14;;;;;;;3.33;2.08;;;25.30;46.80;;;;;;5039104;28;20513;-66
2023/06/10 10:12:41;;;;;;;3.03;1.90;;;25.30;46.70;;;;;;5036331;28;20029;-65
2023/06/10 10:15:09;;;;;;;2.10;1.80;;;25.30;46.80;;;;;;5036144;28;20025;-65
2023/06/10 10:17:43;;;;;;;2.38;1.80;;;25.30;46.70;;;;;;5034893;28;20021;-65
2023/06/10 10:20:12;;;;;;;2.70;1.83;;;25.30;46.70;;;;;;5032988;28;20044;-65
2023/06/10 10:22:39;;;;;;;2.38;2.00;;;25.30;46.60;;;;;;5033924;28;20034;-66
2023/06/10 10:25:23;;;;;;;2.15;1.70;;;25.30;46.70;;;;;;5036811;28;20038;-66
2023/06/10 10:28:11;;;;;;;1.98;1.58;;;25.30;46.60;;;;;;5037084;28;20040;-65
2023/06/10 10:30:42;;;;;;;2.27;1.77;;;25.30;46.60;;;;;;5031911;28;20034;-65
2023/06/10 10:33:15;;;;;;;2.50;1.90;;;25.30;46.70;;;;;;5036583;28;20584;-65
2023/06/10 10:35:41;;;;;;;3.22;1.98;;;25.30;46.70;;;;;;5039336;28;20539;-66
2023/06/10 10:38:08;;;;;;;3.58;2.10;;;25.30;46.60;;;;;;5032029;28;20112;-65
2023/06/10 10:40:34;;;;;;;2.47;1.88;;;25.30;46.70;;;;;;5003726;28;20484;-65
2023/06/10 10:43:00;;;;;;;2.20;1.70;;;25.30;46.80;;;;;;5031844;28;20120;-65
2023/06/10 10:45:28;;;;;;;2.05;1.70;;;25.30;46.70;;;;;;5033406;28;20481;-65
2023/06/10 10:47:57;;;;;;;2.47;1.85;;;25.30;46.80;;;;;;5035148;28;20577;-65
2023/06/10 10:50:24;;;;;;;2.17;1.73;;;25.30;46.80;;;;;;5036938;28;20426;-66
2023/06/10 10:52:53;;;;;;;2.22;1.63;;;25.30;46.80;;;;;;5020843;28;20804;-66
2023/06/10 10:55:19;;;;;;;2.60;2.05;;;25.30;46.90;;;;;;5035023;28;20025;-65
2023/06/10 10:57:57;;;;;;;2.38;1.90;;;25.30;46.90;;;;;;5034613;28;20101;-66
2023/06/10 11:00:32;;;;;;;2.33;1.83;;;25.30;46.90;;;;;;5033718;28;20052;-65
2023/06/10 11:03:00;;;;;;;2.17;1.90;;;25.30;47.00;;;;;;5034725;28;20021;-65
2023/06/10 11:05:41;;;;;;;2.83;2.05;;;25.30;46.90;;;;;;5033902;28;20090;-65
2023/06/10 11:08:08;;;;;;;2.90;2.00;;;25.30;46.90;;;;;;5028785;28;20022;-65
2023/06/10 11:10:40;;;;;;;2.45;1.80;;;25.30;46.90;;;;;;5021131;28;20040;-65
2023/06/10 11:13:09;;;;;;;2.53;2.08;;;25.30;46.90;;;;;;5034293;28;20067;-65
2023/06/10 11:15:38;;;;;;;;;;;25.30;46.90;;;;;;5032474;28;20021;-65
2023/06/10 11:18:10;;;;;;;2.65;2.00;;;25.30;47.00;;;;;;5037663;28;20357;-65
2023/06/10 11:20:45;;;;;;;2.60;2.00;;;25.30;46.90;;;;;;5033475;28;20496;-65
2023/06/10 11:23:25;;;;;;;2.50;1.92;;;25.30;46.90;;;;;;5028786;28;20480;-65
2023/06/10 11:25:51;;;;;;;2.60;1.95;;;25.30;46.90;;;;;;5035324;28;20452;-66
2023/06/10 11:28:20;;;;;;;2.28;1.73;;;25.30;46.80;;;;;;5035241;28;20022;-65
2023/06/10 11:30:56;;;;;;;2.55;2.05;;;25.30;46.80;;;;;;5030633;28;20227;-65
2023/06/10 11:33:24;;;;;;;2.92;1.70;;;25.30;46.80;;;;;;5039514;28;20118;-65
2023/06/10 11:35:50;;;;;;;2.20;1.80;;;25.30;46.80;;;;;;5034604;28;20527;-65
2023/06/10 11:38:16;;;;;;;2.13;1.70;;;25.40;46.80;;;;;;5036962;28;20032;-67
2023/06/10 11:40:50;;;;;;;2.50;1.80;;;25.30;46.70;;;;;;5035178;28;20025;-67
2023/06/10 11:43:17;;;;;;;2.30;2.00;;;25.30;46.60;;;;;;5036580;28;20031;-67
2023/06/10 11:45:43;;;;;;;2.53;1.83;;;25.30;46.60;;;;;;5037525;28;20033;-67
2023/06/10 11:48:09;;;;;;;3.05;1.70;;;25.30;46.60;;;;;;5038474;28;20032;-67
2023/06/10 11:50:36;;;;;;;2.28;1.80;;;25.30;46.60;;;;;;5038009;28;20026;-67
2023/06/10 11:53:02;;;;;;;2.55;1.80;;;25.30;46.60;;;;;;5016215;28;20034;-67
2023/06/10 11:55:48;;;;;;;1.92;1.60;;;25.30;46.50;;;;;;5033337;28;20095;-67
2023/06/10 11:58:18;;;;;;;2.35;1.77;;;25.30;46.50;;;;;;5034193;28;20022;-67
2023/06/10 12:00:45;;;;;;;2.40;1.80;;;25.30;46.50;;;;;;5034899;28;20021;-66
2023/06/10 12:03:10;;;;;;;2.00;1.52;;;25.40;46.60;;;;;;5037399;28;20021;-67
2023/06/10 12:05:36;;;;;;;2.42;1.80;;;25.40;46.60;;;;;;5037823;28;20036;-67
2023/06/10 12:08:10;;;;;;;2.30;1.70;;;25.40;46.50;;;;;;5033625;28;20465;-67
2023/06/10 12:10:42;;;;;;;2.33;1.80;;;25.40;46.50;;;;;;4999406;28;20388;-67
2023/06/10 12:13:11;;;;;;;3.13;1.77;;;25.40;46.50;;;;;;5037435;28;20162;-66
2023/06/10 12:15:37;;;;;;;2.60;2.00;;;25.40;46.60;;;;;;5036536;28;20497;-67
2023/06/10 12:18:03;;;;;;;2.65;1.70;;;25.40;46.60;;;;;;5033665;28;20030;-67
2023/06/10 12:20:31;;;;;;;2.33;1.90;;;25.40;46.60;;;;;;5035097;28;20987;-67
2023/06/10 12:22:57;;;;;;;2.17;1.77;;;25.40;46.60;;;;;;5035044;28;20036;-67
2023/06/10 12:25:27;;;;;;;2.50;2.03;;;25.40;46.60;;;;;;5033945;28;20034;-67
2023/06/10 12:27:55;;;;;;;2.28;1.80;;;25.40;46.60;;;;;;5033377;28;20017;-67
2023/06/10 12:30:22;;;;;;;2.22;1.70;;;25.40;46.60;;;;;;5035308;28;20033;-67
2023/06/10 12:32:48;;;;;;;2.40;1.80;;;25.40;46.60;;;;;;5019214;28;20868;-67
2023/06/10 12:35:24;;;;;;;2.20;1.70;;;25.40;46.70;;;;;;5039549;28;20032;-66
2023/06/10 12:38:00;;;;;;;2.10;1.80;;;25.40;46.60;;;;;;5036573;28;20038;-67
2023/06/10 12:40:33;;;;;;;2.35;1.75;;;25.40;46.70;;;;;;5033905;28;20492;-67
2023/06/10 12:42:59;;;;;;;2.03;1.60;;;25.50;46.70;;;;;;5037936;28;20470;-67
2023/06/10 12:45:36;;;;;;;2.10;1.70;;;25.40;46.60;;;;;;5041571;28;20075;-67
2023/06/10 12:48:09;;;;;;;2.30;1.70;;;25.40;46.60;;;;;;5038502;28;20107;-67
2023/06/10 12:50:41;;;;;;;2.30;1.80;;;25.40;46.60;;;;;;5036342;28;20021;-67